sensor_id;sensor_type;location;lat;lon;timestamp;P1;durP1;ratioP1;P2;durP2;ratioP2
42590;SDS011;28218;53.342;-6.216;2024-02-16T00:00:24;16.08;;;5.75;;
42590;SDS011;28218;53.342;-6.216;2024-02-16T00:02:53;13.38;;;5.40;;
42590;SDS011;28218;53.342;-6.216;2024-02-16T00:05:21;13.10;;;4.80;;
42590;SDS011;28218;53.342;-6.216;2024-02-16T00:07:49;19.10;;;5.93;;
42590;SDS011;28218;53.342;-6.216;2024-02-16T00:10:19;20.48;;;5.93;;
42590;SDS011;28218;53.342;-6.216;2024-02-16T00:12:48;19.20;;;5.20;;
42590;SDS011;28218;53.342;-6.216;2024-02-16T00:15:16;13.48;;;4.50;;
42590;SDS011;28218;53.342;-6.216;2024-02-16T00:17:45;11.88;;;4.93;;
42590;SDS011;28218;53.342;-6.216;2024-02-16T00:20:13;17.52;;;4.97;;
42590;SDS011;28218;53.342;-6.216;2024-02-16T00:22:42;15.27;;;4.95;;
42590;SDS011;28218;53.342;-6.216;2024-02-16T00:25:10;17.08;;;5.13;;
42590;SDS011;28218;53.342;-6.216;2024-02-16T00:27:40;22.58;;;5.53;;
42590;SDS011;28218;53.342;-6.216;2024-02-16T00:30:09;15.90;;;6.18;;
42590;SDS011;28218;53.342;-6.216;2024-02-16T00:32:38;11.70;;;5.55;;
42590;SDS011;28218;53.342;-6.216;2024-02-16T00:35:07;15.40;;;5.22;;
42590;SDS011;28218;53.342;-6.216;2024-02-16T00:37:35;11.73;;;5.05;;
42590;SDS011;28218;53.342;-6.216;2024-02-16T00:40:05;16.95;;;4.38;;
42590;SDS011;28218;53.342;-6.216;2024-02-16T00:42:34;10.23;;;4.07;;
42590;SDS011;28218;53.342;-6.216;2024-02-16T00:45:05;14.77;;;5.72;;
42590;SDS011;28218;53.342;-6.216;2024-02-16T00:47:35;17.45;;;5.55;;
42590;SDS011;28218;53.342;-6.216;2024-02-16T00:50:03;13.85;;;5.05;;
42590;SDS011;28218;53.342;-6.216;2024-02-16T00:52:35;24.52;;;6.22;;
42590;SDS011;28218;53.342;-6.216;2024-02-16T00:55:04;8.07;;;4.60;;
42590;SDS011;28218;53.342;-6.216;2024-02-16T00:57:32;9.07;;;3.80;;
42590;SDS011;28218;53.342;-6.216;2024-02-16T01:00:01;11.75;;;4.20;;
42590;SDS011;28218;53.342;-6.216;2024-02-16T01:02:32;12.25;;;4.43;;
42590;SDS011;28218;53.342;-6.216;2024-02-16T01:05:00;13.57;;;5.10;;
42590;SDS011;28218;53.342;-6.216;2024-02-16T01:07:29;11.48;;;4.10;;
42590;SDS011;28218;53.342;-6.216;2024-02-16T01:09:59;16.70;;;3.72;;
42590;SDS011;28218;53.342;-6.216;2024-02-16T01:12:30;11.63;;;3.80;;
42590;SDS011;28218;53.342;-6.216;2024-02-16T01:14:58;9.40;;;4.25;;
42590;SDS011;28218;53.342;-6.216;2024-02-16T01:17:28;12.68;;;3.70;;
42590;SDS011;28218;53.342;-6.216;2024-02-16T01:20:00;10.63;;;3.58;;
42590;SDS011;28218;53.342;-6.216;2024-02-16T01:22:31;13.25;;;3.95;;
42590;SDS011;28218;53.342;-6.216;2024-02-16T01:24:59;12.15;;;4.03;;
42590;SDS011;28218;53.342;-6.216;2024-02-16T01:27:27;6.38;;;2.90;;
42590;SDS011;28218;53.342;-6.216;2024-02-16T01:29:55;13.18;;;3.85;;
42590;SDS011;28218;53.342;-6.216;2024-02-16T01:32:23;10.00;;;2.72;;
42590;SDS011;28218;53.342;-6.216;2024-02-16T01:34:51;5.72;;;2.88;;
42590;SDS011;28218;53.342;-6.216;2024-02-16T01:37:21;9.95;;;2.60;;
42590;SDS011;28218;53.342;-6.216;2024-02-16T01:39:49;10.43;;;2.55;;
42590;SDS011;28218;53.342;-6.216;2024-02-16T01:42:18;9.20;;;1.95;;
42590;SDS011;28218;53.342;-6.216;2024-02-16T01:44:46;12.10;;;2.35;;
42590;SDS011;28218;53.342;-6.216;2024-02-16T01:47:15;11.07;;;2.30;;
42590;SDS011;28218;53.342;-6.216;2024-02-16T01:49:44;8.60;;;2.20;;
42590;SDS011;28218;53.342;-6.216;2024-02-16T01:52:13;7.68;;;2.17;;
42590;SDS011;28218;53.342;-6.216;2024-02-16T01:54:42;10.30;;;3.10;;
42590;SDS011;28218;53.342;-6.216;2024-02-16T01:57:11;5.57;;;1.75;;
42590;SDS011;28218;53.342;-6.216;2024-02-16T01:59:40;6.18;;;2.00;;
42590;SDS011;28218;53.342;-6.216;2024-02-16T02:02:09;3.33;;;1.33;;
42590;SDS011;28218;53.342;-6.216;2024-02-16T02:04:37;10.63;;;2.78;;
42590;SDS011;28218;53.342;-6.216;2024-02-16T02:07:11;7.95;;;1.50;;
42590;SDS011;28218;53.342;-6.216;2024-02-16T02:09:40;11.45;;;2.45;;
42590;SDS011;28218;53.342;-6.216;2024-02-16T02:12:09;8.43;;;2.20;;
42590;SDS011;28218;53.342;-6.216;2024-02-16T02:14:38;13.15;;;1.83;;
42590;SDS011;28218;53.342;-6.216;2024-02-16T02:17:06;5.47;;;1.65;;
42590;SDS011;28218;53.342;-6.216;2024-02-16T02:19:35;8.52;;;1.85;;
42590;SDS011;28218;53.342;-6.216;2024-02-16T02:22:03;8.15;;;2.67;;
42590;SDS011;28218;53.342;-6.216;2024-02-16T02:24:33;9.80;;;1.85;;
42590;SDS011;28218;53.342;-6.216;2024-02-16T02:27:02;10.40;;;1.95;;
42590;SDS011;28218;53.342;-6.216;2024-02-16T02:29:30;7.53;;;1.50;;
42590;SDS011;28218;53.342;-6.216;2024-02-16T02:32:00;7.75;;;1.40;;
42590;SDS011;28218;53.342;-6.216;2024-02-16T02:34:28;6.88;;;1.35;;
42590;SDS011;28218;53.342;-6.216;2024-02-16T02:36:56;11.45;;;2.55;;
42590;SDS011;28218;53.342;-6.216;2024-02-16T02:39:25;8.10;;;1.88;;
42590;SDS011;28218;53.342;-6.216;2024-02-16T02:41:55;8.65;;;1.40;;
42590;SDS011;28218;53.342;-6.216;2024-02-16T02:44:24;6.20;;;1.67;;
42590;SDS011;28218;53.342;-6.216;2024-02-16T02:46:52;8.98;;;1.92;;
42590;SDS011;28218;53.342;-6.216;2024-02-16T02:49:21;3.53;;;1.48;;
42590;SDS011;28218;53.342;-6.216;2024-02-16T02:51:49;5.85;;;1.52;;
42590;SDS011;28218;53.342;-6.216;2024-02-16T02:54:17;7.35;;;2.10;;
42590;SDS011;28218;53.342;-6.216;2024-02-16T02:56:46;6.22;;;0.98;;
42590;SDS011;28218;53.342;-6.216;2024-02-16T02:59:15;7.40;;;1.10;;
42590;SDS011;28218;53.342;-6.216;2024-02-16T03:01:44;5.72;;;1.08;;
42590;SDS011;28218;53.342;-6.216;2024-02-16T03:04:12;10.43;;;1.95;;
42590;SDS011;28218;53.342;-6.216;2024-02-16T03:06:40;6.25;;;1.45;;
42590;SDS011;28218;53.342;-6.216;2024-02-16T03:09:10;3.65;;;1.20;;
42590;SDS011;28218;53.342;-6.216;2024-02-16T03:11:38;7.32;;;1.70;;
42590;SDS011;28218;53.342;-6.216;2024-02-16T03:14:06;10.00;;;1.35;;
42590;SDS011;28218;53.342;-6.216;2024-02-16T03:16:36;6.05;;;2.00;;
42590;SDS011;28218;53.342;-6.216;2024-02-16T03:19:05;6.05;;;2.13;;
42590;SDS011;28218;53.342;-6.216;2024-02-16T03:21:35;8.98;;;1.63;;
42590;SDS011;28218;53.342;-6.216;2024-02-16T03:24:04;4.32;;;1.08;;
42590;SDS011;28218;53.342;-6.216;2024-02-16T03:26:33;5.68;;;1.02;;
42590;SDS011;28218;53.342;-6.216;2024-02-16T03:29:01;9.15;;;1.40;;
42590;SDS011;28218;53.342;-6.216;2024-02-16T03:31:29;6.15;;;1.38;;
42590;SDS011;28218;53.342;-6.216;2024-02-16T03:33:59;4.70;;;1.13;;
42590;SDS011;28218;53.342;-6.216;2024-02-16T03:36:28;5.57;;;1.20;;
42590;SDS011;28218;53.342;-6.216;2024-02-16T03:38:57;6.53;;;1.40;;
42590;SDS011;28218;53.342;-6.216;2024-02-16T03:41:25;5.53;;;1.48;;
42590;SDS011;28218;53.342;-6.216;2024-02-16T03:43:54;4.22;;;1.25;;
42590;SDS011;28218;53.342;-6.216;2024-02-16T03:46:24;5.65;;;1.08;;
42590;SDS011;28218;53.342;-6.216;2024-02-16T03:48:52;5.75;;;1.50;;
42590;SDS011;28218;53.342;-6.216;2024-02-16T03:51:22;6.97;;;1.30;;
42590;SDS011;28218;53.342;-6.216;2024-02-16T03:53:51;8.85;;;0.90;;
42590;SDS011;28218;53.342;-6.216;2024-02-16T03:56:19;4.90;;;1.73;;
42590;SDS011;28218;53.342;-6.216;2024-02-16T03:58:47;3.75;;;1.15;;
42590;SDS011;28218;53.342;-6.216;2024-02-16T04:01:16;4.00;;;1.13;;
42590;SDS011;28218;53.342;-6.216;2024-02-16T04:03:44;4.22;;;1.45;;
42590;SDS011;28218;53.342;-6.216;2024-02-16T04:06:13;7.88;;;1.58;;
42590;SDS011;28218;53.342;-6.216;2024-02-16T04:08:43;12.52;;;1.42;;
42590;SDS011;28218;53.342;-6.216;2024-02-16T04:11:11;3.60;;;1.65;;
42590;SDS011;28218;53.342;-6.216;2024-02-16T04:13:41;3.43;;;1.00;;
42590;SDS011;28218;53.342;-6.216;2024-02-16T04:16:10;4.78;;;1.15;;
42590;SDS011;28218;53.342;-6.216;2024-02-16T04:18:38;6.20;;;1.52;;
42590;SDS011;28218;53.342;-6.216;2024-02-16T04:21:07;5.30;;;1.27;;
42590;SDS011;28218;53.342;-6.216;2024-02-16T04:23:35;6.97;;;1.27;;
42590;SDS011;28218;53.342;-6.216;2024-02-16T04:26:05;5.22;;;1.10;;
42590;SDS011;28218;53.342;-6.216;2024-02-16T04:28:33;9.65;;;1.40;;
42590;SDS011;28218;53.342;-6.216;2024-02-16T04:31:02;1.85;;;0.73;;
42590;SDS011;28218;53.342;-6.216;2024-02-16T04:33:30;5.95;;;1.20;;
42590;SDS011;28218;53.342;-6.216;2024-02-16T04:35:58;6.03;;;1.55;;
42590;SDS011;28218;53.342;-6.216;2024-02-16T04:38:27;6.43;;;1.23;;
42590;SDS011;28218;53.342;-6.216;2024-02-16T04:40:55;3.00;;;1.17;;
42590;SDS011;28218;53.342;-6.216;2024-02-16T04:43:25;4.50;;;1.23;;
42590;SDS011;28218;53.342;-6.216;2024-02-16T04:45:53;3.20;;;1.15;;
42590;SDS011;28218;53.342;-6.216;2024-02-16T04:48:21;4.32;;;1.40;;
42590;SDS011;28218;53.342;-6.216;2024-02-16T04:50:50;2.55;;;1.00;;
42590;SDS011;28218;53.342;-6.216;2024-02-16T04:53:19;4.95;;;1.20;;
42590;SDS011;28218;53.342;-6.216;2024-02-16T04:55:47;7.07;;;1.38;;
42590;SDS011;28218;53.342;-6.216;2024-02-16T04:58:16;2.05;;;0.80;;
42590;SDS011;28218;53.342;-6.216;2024-02-16T05:00:46;8.60;;;1.30;;
42590;SDS011;28218;53.342;-6.216;2024-02-16T05:03:14;2.65;;;0.80;;
42590;SDS011;28218;53.342;-6.216;2024-02-16T05:05:43;2.88;;;1.10;;
42590;SDS011;28218;53.342;-6.216;2024-02-16T05:08:12;4.13;;;0.95;;
42590;SDS011;28218;53.342;-6.216;2024-02-16T05:10:40;3.80;;;1.00;;
42590;SDS011;28218;53.342;-6.216;2024-02-16T05:13:08;5.13;;;1.38;;
42590;SDS011;28218;53.342;-6.216;2024-02-16T05:15:39;5.95;;;0.85;;
42590;SDS011;28218;53.342;-6.216;2024-02-16T05:18:09;2.00;;;0.80;;
42590;SDS011;28218;53.342;-6.216;2024-02-16T05:20:39;5.97;;;1.20;;
42590;SDS011;28218;53.342;-6.216;2024-02-16T05:23:08;1.70;;;0.95;;
42590;SDS011;28218;53.342;-6.216;2024-02-16T05:25:37;3.75;;;0.90;;
42590;SDS011;28218;53.342;-6.216;2024-02-16T05:28:05;7.85;;;2.28;;
42590;SDS011;28218;53.342;-6.216;2024-02-16T05:30:33;2.67;;;0.80;;
42590;SDS011;28218;53.342;-6.216;2024-02-16T05:33:02;13.10;;;1.17;;
42590;SDS011;28218;53.342;-6.216;2024-02-16T05:35:32;3.38;;;1.08;;
42590;SDS011;28218;53.342;-6.216;2024-02-16T05:38:00;1.63;;;0.70;;
42590;SDS011;28218;53.342;-6.216;2024-02-16T05:40:33;1.65;;;1.13;;
42590;SDS011;28218;53.342;-6.216;2024-02-16T05:43:12;1.70;;;0.90;;
42590;SDS011;28218;53.342;-6.216;2024-02-16T05:45:40;1.20;;;0.77;;
42590;SDS011;28218;53.342;-6.216;2024-02-16T05:48:08;3.35;;;1.00;;
42590;SDS011;28218;53.342;-6.216;2024-02-16T05:50:39;3.95;;;1.00;;
42590;SDS011;28218;53.342;-6.216;2024-02-16T05:53:07;4.25;;;1.40;;
42590;SDS011;28218;53.342;-6.216;2024-02-16T05:55:36;2.20;;;0.73;;
42590;SDS011;28218;53.342;-6.216;2024-02-16T05:58:05;3.50;;;1.10;;
42590;SDS011;28218;53.342;-6.216;2024-02-16T06:00:33;4.95;;;1.10;;
42590;SDS011;28218;53.342;-6.216;2024-02-16T06:03:02;6.43;;;2.35;;
42590;SDS011;28218;53.342;-6.216;2024-02-16T06:05:30;1.35;;;0.90;;
42590;SDS011;28218;53.342;-6.216;2024-02-16T06:08:01;1.10;;;0.90;;
42590;SDS011;28218;53.342;-6.216;2024-02-16T06:10:29;2.50;;;0.80;;
42590;SDS011;28218;53.342;-6.216;2024-02-16T06:12:58;1.67;;;1.13;;
42590;SDS011;28218;53.342;-6.216;2024-02-16T06:15:26;0.70;;;0.70;;
42590;SDS011;28218;53.342;-6.216;2024-02-16T06:17:55;1.85;;;1.05;;
42590;SDS011;28218;53.342;-6.216;2024-02-16T06:20:24;3.72;;;0.95;;
42590;SDS011;28218;53.342;-6.216;2024-02-16T06:22:52;1.05;;;0.90;;
42590;SDS011;28218;53.342;-6.216;2024-02-16T06:25:22;0.70;;;0.70;;
42590;SDS011;28218;53.342;-6.216;2024-02-16T06:27:50;3.67;;;0.80;;
42590;SDS011;28218;53.342;-6.216;2024-02-16T06:30:18;0.68;;;0.68;;
42590;SDS011;28218;53.342;-6.216;2024-02-16T06:32:47;1.85;;;0.80;;
42590;SDS011;28218;53.342;-6.216;2024-02-16T06:35:16;0.73;;;0.73;;
42590;SDS011;28218;53.342;-6.216;2024-02-16T06:37:44;1.45;;;1.20;;
42590;SDS011;28218;53.342;-6.216;2024-02-16T06:40:12;1.95;;;0.90;;
42590;SDS011;28218;53.342;-6.216;2024-02-16T06:42:42;2.83;;;0.77;;
42590;SDS011;28218;53.342;-6.216;2024-02-16T06:45:10;1.13;;;0.60;;
42590;SDS011;28218;53.342;-6.216;2024-02-16T06:47:39;2.83;;;1.38;;
42590;SDS011;28218;53.342;-6.216;2024-02-16T06:50:07;1.20;;;0.90;;
42590;SDS011;28218;53.342;-6.216;2024-02-16T06:52:36;1.05;;;0.70;;
42590;SDS011;28218;53.342;-6.216;2024-02-16T06:55:05;3.13;;;0.70;;
42590;SDS011;28218;53.342;-6.216;2024-02-16T06:57:34;0.40;;;0.40;;
42590;SDS011;28218;53.342;-6.216;2024-02-16T07:00:11;1.92;;;0.70;;
42590;SDS011;28218;53.342;-6.216;2024-02-16T07:02:42;0.65;;;0.50;;
42590;SDS011;28218;53.342;-6.216;2024-02-16T07:05:11;1.52;;;0.80;;
42590;SDS011;28218;53.342;-6.216;2024-02-16T07:07:39;0.60;;;0.55;;
42590;SDS011;28218;53.342;-6.216;2024-02-16T07:10:08;0.68;;;0.50;;
42590;SDS011;28218;53.342;-6.216;2024-02-16T07:12:40;0.80;;;0.40;;
42590;SDS011;28218;53.342;-6.216;2024-02-16T07:15:08;0.88;;;0.40;;
42590;SDS011;28218;53.342;-6.216;2024-02-16T07:17:39;1.15;;;0.57;;
42590;SDS011;28218;53.342;-6.216;2024-02-16T07:20:07;1.45;;;0.40;;
42590;SDS011;28218;53.342;-6.216;2024-02-16T07:22:36;2.30;;;0.50;;
42590;SDS011;28218;53.342;-6.216;2024-02-16T07:25:04;0.40;;;0.40;;
42590;SDS011;28218;53.342;-6.216;2024-02-16T07:27:34;3.10;;;0.40;;
42590;SDS011;28218;53.342;-6.216;2024-02-16T07:30:03;0.52;;;0.43;;
42590;SDS011;28218;53.342;-6.216;2024-02-16T07:32:33;0.43;;;0.30;;
42590;SDS011;28218;53.342;-6.216;2024-02-16T07:35:02;0.30;;;0.30;;
42590;SDS011;28218;53.342;-6.216;2024-02-16T07:37:32;4.45;;;0.30;;
42590;SDS011;28218;53.342;-6.216;2024-02-16T07:40:00;0.70;;;0.30;;
42590;SDS011;28218;53.342;-6.216;2024-02-16T07:42:28;1.10;;;0.30;;
42590;SDS011;28218;53.342;-6.216;2024-02-16T07:44:57;2.92;;;0.28;;
42590;SDS011;28218;53.342;-6.216;2024-02-16T07:47:25;0.52;;;0.30;;
42590;SDS011;28218;53.342;-6.216;2024-02-16T07:49:56;1.42;;;0.40;;
42590;SDS011;28218;53.342;-6.216;2024-02-16T07:52:24;0.30;;;0.30;;
42590;SDS011;28218;53.342;-6.216;2024-02-16T07:54:52;0.77;;;0.30;;
42590;SDS011;28218;53.342;-6.216;2024-02-16T07:57:22;0.68;;;0.50;;
42590;SDS011;28218;53.342;-6.216;2024-02-16T07:59:50;0.82;;;0.30;;
42590;SDS011;28218;53.342;-6.216;2024-02-16T08:02:18;1.17;;;0.50;;
42590;SDS011;28218;53.342;-6.216;2024-02-16T08:04:47;0.85;;;0.30;;
42590;SDS011;28218;53.342;-6.216;2024-02-16T08:07:16;0.50;;;0.50;;
42590;SDS011;28218;53.342;-6.216;2024-02-16T08:09:45;2.65;;;0.70;;
42590;SDS011;28218;53.342;-6.216;2024-02-16T08:12:14;4.47;;;0.93;;
42590;SDS011;28218;53.342;-6.216;2024-02-16T08:14:43;1.98;;;0.50;;
42590;SDS011;28218;53.342;-6.216;2024-02-16T08:17:12;1.75;;;0.40;;
42590;SDS011;28218;53.342;-6.216;2024-02-16T08:19:51;1.83;;;0.70;;
42590;SDS011;28218;53.342;-6.216;2024-02-16T08:22:22;0.40;;;0.40;;
42590;SDS011;28218;53.342;-6.216;2024-02-16T08:24:50;0.68;;;0.55;;
42590;SDS011;28218;53.342;-6.216;2024-02-16T08:27:19;1.13;;;0.43;;
42590;SDS011;28218;53.342;-6.216;2024-02-16T08:29:47;0.20;;;0.20;;
42590;SDS011;28218;53.342;-6.216;2024-02-16T08:32:16;0.75;;;0.50;;
42590;SDS011;28218;53.342;-6.216;2024-02-16T08:34:44;2.50;;;0.60;;
42590;SDS011;28218;53.342;-6.216;2024-02-16T08:37:15;0.40;;;0.40;;
42590;SDS011;28218;53.342;-6.216;2024-02-16T08:39:47;1.45;;;1.25;;
42590;SDS011;28218;53.342;-6.216;2024-02-16T08:42:15;0.65;;;0.40;;
42590;SDS011;28218;53.342;-6.216;2024-02-16T08:44:44;1.95;;;0.52;;
42590;SDS011;28218;53.342;-6.216;2024-02-16T08:47:12;0.40;;;0.30;;
42590;SDS011;28218;53.342;-6.216;2024-02-16T08:49:40;0.50;;;0.45;;
42590;SDS011;28218;53.342;-6.216;2024-02-16T08:52:09;0.40;;;0.40;;
42590;SDS011;28218;53.342;-6.216;2024-02-16T08:54:37;0.85;;;0.45;;
42590;SDS011;28218;53.342;-6.216;2024-02-16T08:57:07;1.33;;;0.60;;
42590;SDS011;28218;53.342;-6.216;2024-02-16T08:59:36;1.35;;;0.45;;
42590;SDS011;28218;53.342;-6.216;2024-02-16T09:02:05;0.57;;;0.57;;
42590;SDS011;28218;53.342;-6.216;2024-02-16T09:04:34;0.40;;;0.40;;
42590;SDS011;28218;53.342;-6.216;2024-02-16T09:07:03;1.58;;;1.30;;
42590;SDS011;28218;53.342;-6.216;2024-02-16T09:09:31;0.20;;;0.20;;
42590;SDS011;28218;53.342;-6.216;2024-02-16T09:12:00;2.25;;;0.40;;
42590;SDS011;28218;53.342;-6.216;2024-02-16T09:14:30;0.65;;;0.40;;
42590;SDS011;28218;53.342;-6.216;2024-02-16T09:16:59;2.15;;;0.40;;
42590;SDS011;28218;53.342;-6.216;2024-02-16T09:19:27;0.30;;;0.30;;
42590;SDS011;28218;53.342;-6.216;2024-02-16T09:21:56;0.85;;;0.38;;
42590;SDS011;28218;53.342;-6.216;2024-02-16T09:24:25;0.52;;;0.30;;
42590;SDS011;28218;53.342;-6.216;2024-02-16T09:26:56;0.30;;;0.30;;
42590;SDS011;28218;53.342;-6.216;2024-02-16T09:31:57;1.20;;;0.30;;
42590;SDS011;28218;53.342;-6.216;2024-02-16T09:34:27;0.60;;;0.35;;
42590;SDS011;28218;53.342;-6.216;2024-02-16T09:36:55;0.30;;;0.30;;
42590;SDS011;28218;53.342;-6.216;2024-02-16T09:39:23;0.65;;;0.43;;
42590;SDS011;28218;53.342;-6.216;2024-02-16T09:41:54;1.58;;;0.50;;
42590;SDS011;28218;53.342;-6.216;2024-02-16T09:44:23;1.23;;;0.50;;
42590;SDS011;28218;53.342;-6.216;2024-02-16T09:46:51;0.50;;;0.50;;
42590;SDS011;28218;53.342;-6.216;2024-02-16T09:49:23;0.82;;;0.25;;
42590;SDS011;28218;53.342;-6.216;2024-02-16T09:52:02;0.28;;;0.28;;
42590;SDS011;28218;53.342;-6.216;2024-02-16T09:54:31;0.45;;;0.30;;
42590;SDS011;28218;53.342;-6.216;2024-02-16T09:57:01;2.30;;;0.70;;
42590;SDS011;28218;53.342;-6.216;2024-02-16T09:59:31;1.02;;;0.65;;
42590;SDS011;28218;53.342;-6.216;2024-02-16T10:02:00;2.97;;;0.30;;
42590;SDS011;28218;53.342;-6.216;2024-02-16T10:04:29;0.40;;;0.40;;
42590;SDS011;28218;53.342;-6.216;2024-02-16T10:07:02;1.48;;;0.30;;
42590;SDS011;28218;53.342;-6.216;2024-02-16T10:09:38;0.88;;;0.50;;
42590;SDS011;28218;53.342;-6.216;2024-02-16T10:12:09;1.17;;;0.88;;
42590;SDS011;28218;53.342;-6.216;2024-02-16T10:14:38;0.40;;;0.40;;
42590;SDS011;28218;53.342;-6.216;2024-02-16T10:17:08;1.13;;;0.60;;
42590;SDS011;28218;53.342;-6.216;2024-02-16T10:19:38;1.20;;;0.60;;
42590;SDS011;28218;53.342;-6.216;2024-02-16T10:22:09;3.25;;;0.77;;
42590;SDS011;28218;53.342;-6.216;2024-02-16T10:24:39;0.43;;;0.43;;
42590;SDS011;28218;53.342;-6.216;2024-02-16T10:27:13;2.50;;;0.63;;
42590;SDS011;28218;53.342;-6.216;2024-02-16T10:29:44;0.47;;;0.30;;
42590;SDS011;28218;53.342;-6.216;2024-02-16T10:32:16;0.50;;;0.47;;
42590;SDS011;28218;53.342;-6.216;2024-02-16T10:34:47;2.53;;;0.40;;
42590;SDS011;28218;53.342;-6.216;2024-02-16T10:37:17;2.63;;;0.65;;
42590;SDS011;28218;53.342;-6.216;2024-02-16T10:39:45;0.40;;;0.40;;
42590;SDS011;28218;53.342;-6.216;2024-02-16T10:42:15;0.85;;;0.47;;
42590;SDS011;28218;53.342;-6.216;2024-02-16T10:47:15;0.50;;;0.30;;
42590;SDS011;28218;53.342;-6.216;2024-02-16T10:49:43;4.75;;;0.50;;
42590;SDS011;28218;53.342;-6.216;2024-02-16T10:52:14;1.45;;;0.80;;
42590;SDS011;28218;53.342;-6.216;2024-02-16T10:54:45;2.20;;;1.15;;
42590;SDS011;28218;53.342;-6.216;2024-02-16T10:57:14;1.38;;;0.50;;
42590;SDS011;28218;53.342;-6.216;2024-02-16T10:59:44;1.27;;;0.73;;
42590;SDS011;28218;53.342;-6.216;2024-02-16T11:02:14;0.50;;;0.50;;
42590;SDS011;28218;53.342;-6.216;2024-02-16T11:04:45;4.00;;;0.88;;
42590;SDS011;28218;53.342;-6.216;2024-02-16T11:07:17;1.80;;;0.68;;
42590;SDS011;28218;53.342;-6.216;2024-02-16T11:12:15;1.40;;;0.63;;
42590;SDS011;28218;53.342;-6.216;2024-02-16T11:14:45;2.35;;;0.55;;
42590;SDS011;28218;53.342;-6.216;2024-02-16T11:17:15;0.85;;;0.55;;
42590;SDS011;28218;53.342;-6.216;2024-02-16T11:19:47;6.15;;;0.90;;
42590;SDS011;28218;53.342;-6.216;2024-02-16T11:22:18;1.73;;;0.40;;
42590;SDS011;28218;53.342;-6.216;2024-02-16T11:24:47;4.23;;;0.70;;
42590;SDS011;28218;53.342;-6.216;2024-02-16T11:27:17;2.83;;;0.85;;
42590;SDS011;28218;53.342;-6.216;2024-02-16T11:29:48;3.90;;;1.20;;
42590;SDS011;28218;53.342;-6.216;2024-02-16T11:32:18;3.58;;;0.88;;
42590;SDS011;28218;53.342;-6.216;2024-02-16T11:34:47;1.15;;;0.40;;
42590;SDS011;28218;53.342;-6.216;2024-02-16T11:37:16;1.90;;;0.70;;
42590;SDS011;28218;53.342;-6.216;2024-02-16T11:39:45;2.63;;;0.73;;
42590;SDS011;28218;53.342;-6.216;2024-02-16T11:42:18;1.70;;;0.80;;
42590;SDS011;28218;53.342;-6.216;2024-02-16T11:44:51;2.78;;;0.93;;
42590;SDS011;28218;53.342;-6.216;2024-02-16T11:47:21;5.35;;;0.60;;
42590;SDS011;28218;53.342;-6.216;2024-02-16T11:50:02;3.15;;;1.00;;
42590;SDS011;28218;53.342;-6.216;2024-02-16T11:52:33;3.67;;;1.13;;
42590;SDS011;28218;53.342;-6.216;2024-02-16T11:55:02;3.80;;;0.80;;
42590;SDS011;28218;53.342;-6.216;2024-02-16T11:57:31;4.95;;;0.68;;
42590;SDS011;28218;53.342;-6.216;2024-02-16T12:00:01;2.85;;;0.77;;
42590;SDS011;28218;53.342;-6.216;2024-02-16T12:02:34;4.03;;;0.77;;
42590;SDS011;28218;53.342;-6.216;2024-02-16T12:05:04;2.95;;;0.93;;
42590;SDS011;28218;53.342;-6.216;2024-02-16T12:07:36;1.58;;;0.60;;
42590;SDS011;28218;53.342;-6.216;2024-02-16T12:10:07;6.03;;;1.02;;
42590;SDS011;28218;53.342;-6.216;2024-02-16T12:12:37;3.55;;;0.68;;
42590;SDS011;28218;53.342;-6.216;2024-02-16T12:15:06;1.52;;;0.60;;
42590;SDS011;28218;53.342;-6.216;2024-02-16T12:17:35;4.18;;;0.57;;
42590;SDS011;28218;53.342;-6.216;2024-02-16T12:20:10;3.13;;;1.00;;
42590;SDS011;28218;53.342;-6.216;2024-02-16T12:22:41;1.92;;;0.90;;
42590;SDS011;28218;53.342;-6.216;2024-02-16T12:25:09;3.63;;;0.70;;
42590;SDS011;28218;53.342;-6.216;2024-02-16T12:27:38;2.20;;;0.65;;
42590;SDS011;28218;53.342;-6.216;2024-02-16T12:30:07;2.22;;;0.80;;
42590;SDS011;28218;53.342;-6.216;2024-02-16T12:32:37;3.15;;;1.60;;
42590;SDS011;28218;53.342;-6.216;2024-02-16T12:35:06;1.70;;;0.80;;
42590;SDS011;28218;53.342;-6.216;2024-02-16T12:37:36;2.33;;;0.90;;
42590;SDS011;28218;53.342;-6.216;2024-02-16T12:40:07;2.28;;;0.65;;
42590;SDS011;28218;53.342;-6.216;2024-02-16T12:42:36;2.63;;;0.80;;
42590;SDS011;28218;53.342;-6.216;2024-02-16T12:45:04;4.13;;;0.95;;
42590;SDS011;28218;53.342;-6.216;2024-02-16T12:47:33;4.15;;;0.80;;
42590;SDS011;28218;53.342;-6.216;2024-02-16T12:50:02;3.40;;;0.73;;
42590;SDS011;28218;53.342;-6.216;2024-02-16T12:52:30;2.88;;;0.95;;
42590;SDS011;28218;53.342;-6.216;2024-02-16T12:55:10;1.80;;;1.00;;
42590;SDS011;28218;53.342;-6.216;2024-02-16T12:57:39;2.55;;;0.80;;
42590;SDS011;28218;53.342;-6.216;2024-02-16T13:00:07;3.33;;;0.80;;
42590;SDS011;28218;53.342;-6.216;2024-02-16T13:02:36;3.50;;;0.80;;
42590;SDS011;28218;53.342;-6.216;2024-02-16T13:05:04;3.35;;;1.40;;
42590;SDS011;28218;53.342;-6.216;2024-02-16T13:07:33;4.57;;;1.05;;
42590;SDS011;28218;53.342;-6.216;2024-02-16T13:10:02;2.22;;;0.88;;
42590;SDS011;28218;53.342;-6.216;2024-02-16T13:12:31;2.22;;;0.90;;
42590;SDS011;28218;53.342;-6.216;2024-02-16T13:15:00;1.73;;;0.80;;
42590;SDS011;28218;53.342;-6.216;2024-02-16T13:17:48;4.72;;;0.88;;
42590;SDS011;28218;53.342;-6.216;2024-02-16T13:20:16;2.70;;;0.63;;
42590;SDS011;28218;53.342;-6.216;2024-02-16T13:22:45;7.22;;;1.48;;
42590;SDS011;28218;53.342;-6.216;2024-02-16T13:25:14;1.92;;;0.82;;
42590;SDS011;28218;53.342;-6.216;2024-02-16T13:27:44;2.85;;;0.90;;
42590;SDS011;28218;53.342;-6.216;2024-02-16T13:30:13;1.08;;;0.60;;
42590;SDS011;28218;53.342;-6.216;2024-02-16T13:32:41;3.05;;;0.70;;
42590;SDS011;28218;53.342;-6.216;2024-02-16T13:35:09;5.30;;;0.73;;
42590;SDS011;28218;53.342;-6.216;2024-02-16T13:37:42;3.58;;;0.90;;
42590;SDS011;28218;53.342;-6.216;2024-02-16T13:40:11;2.35;;;0.70;;
42590;SDS011;28218;53.342;-6.216;2024-02-16T13:42:40;3.35;;;0.70;;
42590;SDS011;28218;53.342;-6.216;2024-02-16T13:45:10;1.92;;;0.52;;
42590;SDS011;28218;53.342;-6.216;2024-02-16T13:47:38;2.30;;;0.80;;
42590;SDS011;28218;53.342;-6.216;2024-02-16T13:50:08;4.57;;;0.88;;
42590;SDS011;28218;53.342;-6.216;2024-02-16T13:52:36;0.90;;;0.80;;
42590;SDS011;28218;53.342;-6.216;2024-02-16T13:55:05;2.92;;;1.00;;
42590;SDS011;28218;53.342;-6.216;2024-02-16T13:57:37;3.35;;;0.80;;
42590;SDS011;28218;53.342;-6.216;2024-02-16T14:00:06;2.42;;;1.10;;
42590;SDS011;28218;53.342;-6.216;2024-02-16T14:02:37;2.17;;;0.70;;
42590;SDS011;28218;53.342;-6.216;2024-02-16T14:05:06;2.20;;;0.90;;
42590;SDS011;28218;53.342;-6.216;2024-02-16T14:07:35;2.78;;;0.85;;
42590;SDS011;28218;53.342;-6.216;2024-02-16T14:10:16;4.68;;;1.30;;
42590;SDS011;28218;53.342;-6.216;2024-02-16T14:12:44;7.22;;;1.35;;
42590;SDS011;28218;53.342;-6.216;2024-02-16T14:15:13;5.18;;;0.98;;
42590;SDS011;28218;53.342;-6.216;2024-02-16T14:17:44;5.45;;;0.90;;
42590;SDS011;28218;53.342;-6.216;2024-02-16T14:20:12;3.88;;;0.93;;
42590;SDS011;28218;53.342;-6.216;2024-02-16T14:22:41;8.85;;;1.45;;
42590;SDS011;28218;53.342;-6.216;2024-02-16T14:25:10;7.25;;;1.75;;
42590;SDS011;28218;53.342;-6.216;2024-02-16T14:27:40;13.80;;;1.30;;
42590;SDS011;28218;53.342;-6.216;2024-02-16T14:30:09;5.50;;;1.67;;
42590;SDS011;28218;53.342;-6.216;2024-02-16T14:32:38;7.70;;;1.20;;
42590;SDS011;28218;53.342;-6.216;2024-02-16T14:35:09;8.68;;;2.50;;
42590;SDS011;28218;53.342;-6.216;2024-02-16T14:37:37;5.00;;;1.27;;
42590;SDS011;28218;53.342;-6.216;2024-02-16T14:40:06;5.57;;;1.50;;
42590;SDS011;28218;53.342;-6.216;2024-02-16T14:42:36;6.28;;;1.00;;
42590;SDS011;28218;53.342;-6.216;2024-02-16T14:45:07;7.93;;;1.13;;
42590;SDS011;28218;53.342;-6.216;2024-02-16T14:47:36;4.43;;;0.90;;
42590;SDS011;28218;53.342;-6.216;2024-02-16T14:50:05;4.20;;;1.45;;
42590;SDS011;28218;53.342;-6.216;2024-02-16T14:52:36;12.70;;;2.05;;